Terminal Aerodrome Forecast
Issued by NWS

Home | Current Version | Previous Version | Text Only | Print | Product List | Glossary On
Versions: 1 2 3 4 5 6 7 8 9 10 11 12 13 14 15
010
FTUS42 TJSJ 312212 AAA
TAFJPS
TAF AMD
TJPS 312212Z 3122/0118 13010KT P6SM VCSH SCT025 BKN050 BKN090
      TEMPO 3122/3123 VRB14KT -TSRA BKN025CB
     FM010000 05005KT P6SM FEW030 SCT050 BKN120
     FM011500 13012KT P6SM FEW030 SCT060
      AMD NOT SKED TIL 010300=

USA.gov is the U.S. government's official web portal to all federal, state and local government web resources and services.